createdAt,value
2017-06-30T00:00:42.607Z,46.3
2017-06-30T00:01:43.558Z,46.4
2017-06-30T00:02:44.507Z,46.3
2017-06-30T00:03:45.858Z,46.4
2017-06-30T00:04:46.811Z,46.4
2017-06-30T00:05:47.739Z,46.4
2017-06-30T00:06:48.698Z,46.4
2017-06-30T00:07:49.784Z,46.4
2017-06-30T00:08:50.911Z,46.2
2017-06-30T00:09:52.191Z,46.3
2017-06-30T00:10:53.140Z,46.2
2017-06-30T00:11:54.046Z,46.0
2017-06-30T00:12:54.992Z,46.2
2017-06-30T00:13:56.027Z,46.3
2017-06-30T00:14:57.100Z,46.4
2017-06-30T00:15:58.293Z,46.3
2017-06-30T00:16:59.270Z,46.4
2017-06-30T00:18:00.755Z,46.2
2017-06-30T00:19:01.764Z,46.3
2017-06-30T00:20:02.723Z,46.2
2017-06-30T00:21:03.652Z,46.4
2017-06-30T00:22:04.949Z,46.3
2017-06-30T00:23:06.405Z,46.4
2017-06-30T00:24:07.250Z,46.4
2017-06-30T00:25:08.403Z,46.1
2017-06-30T00:26:09.352Z,46.2
2017-06-30T00:27:10.814Z,46.2
2017-06-30T00:28:12.066Z,46.2
2017-06-30T00:29:13.007Z,46.4
2017-06-30T00:30:13.875Z,46.2
2017-06-30T00:31:14.921Z,46.2
2017-06-30T00:32:15.802Z,46.2
2017-06-30T00:33:16.650Z,46.3
2017-06-30T00:34:17.950Z,46.3
2017-06-30T00:35:18.823Z,46.2
2017-06-30T00:36:19.937Z,46.4
2017-06-30T00:37:20.932Z,46.6
2017-06-30T00:38:22.386Z,46.5
2017-06-30T00:39:23.312Z,45.9
2017-06-30T00:40:24.603Z,46.5
2017-06-30T00:41:25.510Z,46.3
2017-06-30T00:42:26.448Z,46.4
2017-06-30T00:43:27.380Z,46.2
2017-06-30T00:44:28.310Z,46.4
2017-06-30T00:45:29.254Z,46.8
2017-06-30T00:46:30.534Z,46.5
2017-06-30T00:47:31.508Z,46.5
2017-06-30T00:48:32.358Z,46.5
2017-06-30T00:49:33.222Z,46.1
2017-06-30T00:50:34.090Z,46.4
2017-06-30T00:51:35.015Z,46.4
2017-06-30T00:52:37.264Z,46.1
2017-06-30T00:53:38.234Z,46.4
2017-06-30T00:54:39.140Z,46.4
2017-06-30T00:55:40.086Z,46.5
2017-06-30T00:56:41.141Z,46.6
2017-06-30T00:57:42.136Z,46.3
2017-06-30T00:58:43.426Z,46.5
2017-06-30T00:59:44.317Z,46.5
2017-06-30T01:00:45.246Z,46.7
2017-06-30T01:01:46.321Z,46.3
2017-06-30T01:02:47.291Z,46.5
2017-06-30T01:03:48.216Z,46.7
2017-06-30T01:04:49.632Z,46.4
2017-06-30T01:05:50.594Z,46.6
2017-06-30T01:06:51.519Z,46.1
2017-06-30T01:07:53.134Z,46.2
2017-06-30T01:08:53.981Z,46.6
2017-06-30T01:09:54.917Z,46.5
2017-06-30T01:10:56.212Z,46.4
2017-06-30T01:11:57.268Z,46.6
2017-06-30T01:12:58.220Z,46.6
2017-06-30T01:13:59.162Z,46.7
2017-06-30T01:15:00.104Z,46.5
2017-06-30T01:16:00.973Z,46.1
2017-06-30T01:17:02.845Z,46.4
2017-06-30T01:18:03.700Z,46.5
2017-06-30T01:19:05.139Z,46.5
2017-06-30T01:20:06.250Z,46.6
2017-06-30T01:21:07.717Z,46.7
2017-06-30T01:22:08.559Z,46.6
2017-06-30T01:23:09.845Z,46.5
2017-06-30T01:24:10.895Z,46.6
2017-06-30T01:25:11.817Z,46.6
2017-06-30T01:26:12.771Z,46.5
2017-06-30T01:27:13.617Z,46.5
2017-06-30T01:28:14.559Z,46.6
2017-06-30T01:29:15.906Z,46.7
2017-06-30T01:30:16.746Z,46.6
2017-06-30T01:31:17.891Z,46.7
2017-06-30T01:32:18.813Z,46.7
2017-06-30T01:33:19.757Z,46.5
2017-06-30T01:34:21.235Z,46.4
2017-06-30T01:35:22.447Z,46.4
2017-06-30T01:36:23.607Z,46.6
2017-06-30T01:37:24.557Z,46.5
2017-06-30T01:38:25.564Z,46.5
2017-06-30T01:39:27.007Z,46.7
2017-06-30T01:40:28.054Z,46.7
2017-06-30T01:41:29.386Z,46.6
2017-06-30T01:42:30.321Z,46.6
2017-06-30T01:43:31.184Z,46.6
2017-06-30T01:44:32.027Z,46.6
2017-06-30T01:45:32.940Z,46.4
2017-06-30T01:46:34.045Z,46.4
2017-06-30T01:47:35.236Z,46.5
2017-06-30T01:48:36.095Z,46.7
2017-06-30T01:49:37.053Z,46.6
2017-06-30T01:50:37.982Z,46.5
2017-06-30T01:51:39.113Z,46.6
2017-06-30T01:52:40.068Z,46.5
2017-06-30T01:53:41.949Z,46.6
2017-06-30T01:54:42.837Z,46.6
2017-06-30T01:55:44.269Z,46.7
2017-06-30T01:56:45.375Z,46.7
2017-06-30T01:57:46.224Z,46.6
2017-06-30T01:58:47.151Z,46.7
2017-06-30T01:59:48.501Z,46.6
2017-06-30T02:00:49.402Z,46.5
2017-06-30T02:01:50.335Z,46.5
2017-06-30T02:02:51.197Z,46.5
2017-06-30T02:03:52.084Z,46.5
2017-06-30T02:04:52.996Z,46.5
2017-06-30T02:05:54.176Z,46.4
2017-06-30T02:06:54.995Z,46.5
2017-06-30T02:07:56.874Z,46.4
2017-06-30T02:08:57.723Z,46.5
2017-06-30T02:09:58.669Z,46.5
2017-06-30T02:11:00.488Z,46.5
2017-06-30T02:12:01.789Z,46.5
2017-06-30T02:14:18.276Z,46.5
2017-06-30T02:15:19.333Z,46.5
2017-06-30T02:16:20.295Z,46.5
2017-06-30T02:17:21.251Z,46.4
2017-06-30T02:18:22.441Z,46.4
2017-06-30T02:19:24.007Z,46.5
2017-06-30T02:20:24.930Z,46.4
2017-06-30T02:21:25.899Z,46.4
2017-06-30T02:22:26.763Z,46.5
2017-06-30T02:23:28.249Z,46.6
2017-06-30T02:24:29.516Z,46.4
2017-06-30T02:25:30.419Z,46.5
2017-06-30T02:26:32.127Z,46.5
2017-06-30T02:27:33.002Z,46.4
2017-06-30T02:28:33.880Z,46.5
2017-06-30T02:29:35.260Z,46.5
2017-06-30T02:30:36.498Z,46.4
2017-06-30T02:31:37.557Z,46.5
2017-06-30T02:32:38.983Z,46.4
2017-06-30T02:33:39.850Z,46.4
2017-06-30T02:34:40.691Z,46.5
2017-06-30T02:35:41.577Z,46.4
2017-06-30T02:36:42.793Z,46.5
2017-06-30T02:37:43.670Z,46.4
2017-06-30T02:38:44.594Z,46.4
2017-06-30T02:39:45.527Z,46.4
2017-06-30T02:40:46.922Z,46.4
2017-06-30T02:41:47.764Z,46.3
2017-06-30T02:42:49.108Z,46.4
2017-06-30T02:43:49.975Z,46.1
2017-06-30T02:44:50.823Z,46.4
2017-06-30T02:45:51.849Z,46.1
2017-06-30T02:46:52.787Z,46.4
2017-06-30T02:47:53.743Z,46.4
2017-06-30T02:48:55.015Z,46.4
2017-06-30T02:49:56.062Z,46.4
2017-06-30T02:50:57.193Z,46.4
2017-06-30T02:51:58.038Z,46.3
2017-06-30T02:52:58.874Z,46.4
2017-06-30T02:53:59.742Z,46.5
2017-06-30T02:55:00.613Z,46.4
2017-06-30T02:56:02.532Z,46.4
2017-06-30T02:57:03.573Z,46.4
2017-06-30T02:58:04.611Z,46.4
2017-06-30T02:59:05.453Z,46.5
2017-06-30T03:00:06.338Z,46.4
2017-06-30T03:01:07.803Z,46.4
2017-06-30T03:02:09.082Z,46.4
2017-06-30T03:03:09.999Z,46.4
2017-06-30T03:04:10.924Z,46.5
2017-06-30T03:05:11.857Z,46.4
2017-06-30T03:06:12.782Z,46.3
2017-06-30T03:07:13.732Z,46.4
2017-06-30T03:08:14.974Z,46.4
2017-06-30T03:09:15.838Z,46.4
2017-06-30T03:10:16.767Z,46.4
2017-06-30T03:11:18.186Z,46.4
2017-06-30T03:12:19.125Z,46.4
2017-06-30T03:13:20.098Z,46.3
2017-06-30T03:14:21.290Z,46.5
2017-06-30T03:15:22.243Z,46.3
2017-06-30T03:16:23.205Z,46.4
2017-06-30T03:17:24.149Z,46.4
2017-06-30T03:18:25.418Z,46.5
2017-06-30T03:19:26.302Z,46.5
2017-06-30T03:20:27.596Z,46.5
2017-06-30T03:21:28.525Z,46.6
2017-06-30T03:22:29.984Z,46.4
2017-06-30T03:23:31.075Z,46.3
2017-06-30T03:24:32.099Z,46.5
2017-06-30T03:25:32.966Z,46.5
2017-06-30T03:26:34.221Z,46.4
2017-06-30T03:27:35.128Z,46.4
2017-06-30T03:28:36.027Z,46.4
2017-06-30T03:29:36.882Z,46.5
2017-06-30T03:30:37.831Z,46.5
2017-06-30T03:31:38.702Z,46.7
2017-06-30T03:32:39.971Z,46.5
2017-06-30T03:33:41.270Z,46.8
2017-06-30T03:34:42.218Z,46.5
2017-06-30T03:35:43.953Z,46.4
2017-06-30T03:36:44.906Z,46.4
2017-06-30T03:37:45.862Z,46.3
2017-06-30T03:38:47.209Z,46.8
2017-06-30T03:39:48.130Z,46.5
2017-06-30T03:40:49.100Z,46.4
2017-06-30T03:41:50.024Z,46.8
2017-06-30T03:42:50.876Z,46.6
2017-06-30T03:43:52.412Z,46.6
2017-06-30T03:44:53.749Z,46.8
2017-06-30T03:45:54.614Z,46.8
2017-06-30T03:46:55.474Z,46.8
2017-06-30T03:47:56.323Z,46.3
2017-06-30T03:48:57.278Z,46.7
2017-06-30T03:49:58.150Z,46.5
2017-06-30T03:50:59.439Z,46.3
2017-06-30T03:52:00.379Z,46.5
2017-06-30T03:53:01.302Z,46.6
2017-06-30T03:54:02.283Z,46.5
2017-06-30T03:55:03.284Z,46.4
2017-06-30T03:56:04.153Z,46.5
2017-06-30T03:57:05.421Z,46.7
2017-06-30T03:58:06.369Z,46.7
2017-06-30T03:59:07.288Z,46.7
2017-06-30T04:00:08.163Z,46.5
2017-06-30T04:01:09.190Z,46.7
2017-06-30T04:02:10.608Z,46.6
2017-06-30T04:03:11.907Z,46.8
2017-06-30T04:04:12.791Z,46.3
2017-06-30T04:05:14.263Z,46.8
2017-06-30T04:06:15.276Z,46.4
2017-06-30T04:07:16.144Z,46.4
2017-06-30T04:08:17.025Z,46.4
2017-06-30T04:09:19.377Z,46.4
2017-06-30T04:10:20.327Z,46.4
2017-06-30T04:11:21.665Z,46.7
2017-06-30T04:12:22.669Z,46.6
2017-06-30T04:13:23.518Z,46.8
2017-06-30T04:14:24.431Z,46.7
2017-06-30T04:15:25.640Z,46.8
2017-06-30T04:16:26.685Z,46.5
2017-06-30T04:17:28.231Z,46.4
2017-06-30T04:18:29.176Z,46.5
2017-06-30T04:19:30.080Z,46.5
2017-06-30T04:20:31.148Z,46.4
2017-06-30T04:21:32.507Z,46.3
2017-06-30T04:22:33.405Z,46.7
2017-06-30T04:23:34.672Z,46.4
2017-06-30T04:24:35.588Z,46.4
2017-06-30T04:25:36.702Z,46.5
2017-06-30T04:26:37.567Z,46.5
2017-06-30T04:27:38.816Z,46.5
2017-06-30T04:28:39.786Z,46.5
2017-06-30T04:29:41.265Z,46.4
2017-06-30T04:30:42.393Z,46.6
2017-06-30T04:31:43.246Z,46.4
2017-06-30T04:32:44.099Z,46.4
2017-06-30T04:33:45.346Z,46.5
2017-06-30T04:34:46.831Z,46.4
2017-06-30T04:35:48.491Z,46.4
2017-06-30T04:36:49.440Z,46.4
2017-06-30T04:37:50.310Z,46.4
2017-06-30T04:38:51.267Z,46.5
2017-06-30T04:39:52.631Z,46.4
2017-06-30T04:40:54.326Z,46.1
2017-06-30T04:41:55.291Z,46.6
2017-06-30T04:42:56.321Z,46.4
2017-06-30T04:43:57.473Z,46.4
2017-06-30T04:44:58.494Z,46.5
2017-06-30T04:45:59.822Z,46.4
2017-06-30T04:47:00.697Z,46.4
2017-06-30T04:48:01.765Z,46.4
2017-06-30T04:49:02.698Z,46.7
2017-06-30T04:50:03.781Z,46.6
2017-06-30T04:51:04.715Z,46.6
2017-06-30T04:52:06.170Z,46.5
2017-06-30T04:54:23.288Z,46.4
2017-06-30T04:55:24.330Z,46.7
2017-06-30T04:56:25.210Z,46.4
2017-06-30T04:57:26.129Z,46.5
2017-06-30T04:58:27.460Z,46.6
2017-06-30T04:59:28.673Z,46.5
2017-06-30T05:00:29.693Z,46.3
2017-06-30T05:01:30.601Z,46.5
2017-06-30T05:02:31.533Z,46.4
2017-06-30T05:03:33.182Z,46.4
2017-06-30T05:04:34.525Z,46.4
2017-06-30T05:05:35.418Z,46.4
2017-06-30T05:06:37.278Z,46.4
2017-06-30T05:07:38.181Z,46.3
2017-06-30T05:08:39.252Z,46.4
2017-06-30T05:09:40.238Z,46.2
2017-06-30T05:10:41.560Z,46.1
2017-06-30T05:11:42.630Z,46.3
2017-06-30T05:12:43.477Z,46.3
2017-06-30T05:13:44.527Z,46.3
2017-06-30T05:14:45.661Z,46.3
2017-06-30T05:15:47.059Z,46.1
2017-06-30T05:16:48.452Z,46.3
2017-06-30T05:17:49.344Z,46.1
2017-06-30T05:18:50.233Z,46.1
2017-06-30T05:19:51.963Z,46.2
2017-06-30T05:20:52.883Z,46.2
2017-06-30T05:21:53.769Z,46.2
2017-06-30T05:22:55.574Z,45.8
2017-06-30T05:23:56.645Z,45.9
2017-06-30T05:26:13.140Z,45.8
2017-06-30T05:27:14.167Z,45.8
2017-06-30T05:28:15.012Z,45.8
2017-06-30T05:29:16.343Z,45.8
2017-06-30T05:30:17.558Z,46.0
2017-06-30T05:31:18.753Z,46.0
2017-06-30T05:33:35.239Z,45.9
2017-06-30T05:34:36.555Z,46.3
2017-06-30T05:35:37.787Z,46.2
2017-06-30T05:36:38.652Z,46.0
2017-06-30T05:37:39.742Z,45.7
2017-06-30T05:38:40.734Z,45.4
2017-06-30T05:39:41.696Z,45.7
2017-06-30T05:40:43.127Z,45.7
2017-06-30T05:41:46.600Z,45.4
2017-06-30T05:42:47.561Z,46.3
2017-06-30T05:43:48.594Z,46.4
2017-06-30T05:46:05.024Z,45.6
2017-06-30T05:47:06.363Z,45.6
2017-06-30T05:48:07.320Z,45.4
2017-06-30T05:49:09.150Z,45.6
2017-06-30T05:50:10.235Z,45.4
2017-06-30T05:51:11.123Z,45.6
2017-06-30T05:52:11.992Z,45.5
2017-06-30T05:53:13.216Z,45.4
2017-06-30T05:54:14.322Z,45.6
2017-06-30T05:55:15.196Z,45.6
2017-06-30T05:56:16.166Z,45.4
2017-06-30T05:57:17.646Z,45.6
2017-06-30T05:58:18.598Z,45.9
2017-06-30T05:59:20.473Z,45.4
2017-06-30T06:00:21.396Z,45.4
2017-06-30T06:01:22.494Z,45.5
2017-06-30T06:02:23.364Z,45.4
2017-06-30T06:03:24.244Z,45.4
2017-06-30T06:04:25.235Z,45.2
2017-06-30T06:05:26.590Z,45.2
2017-06-30T06:06:27.718Z,45.2
2017-06-30T06:07:28.781Z,45.6
2017-06-30T06:08:29.625Z,45.3
2017-06-30T06:09:30.474Z,45.2
2017-06-30T06:10:31.346Z,45.4
2017-06-30T06:11:32.617Z,45.1
2017-06-30T06:12:33.696Z,45.2
2017-06-30T06:13:34.562Z,45.1
2017-06-30T06:14:35.518Z,45.4
2017-06-30T06:15:36.385Z,45.1
2017-06-30T06:16:37.506Z,45.2
2017-06-30T06:18:54.655Z,45.1
2017-06-30T06:19:55.839Z,45.1
2017-06-30T06:20:57.005Z,45.1
2017-06-30T06:21:58.270Z,45.1
2017-06-30T06:22:59.229Z,44.8
2017-06-30T06:24:00.875Z,44.9
2017-06-30T06:25:01.767Z,44.9
2017-06-30T06:26:03.279Z,45.1
2017-06-30T06:27:04.281Z,45.1
2017-06-30T06:28:05.482Z,45.1
2017-06-30T06:29:06.421Z,45.0
2017-06-30T06:30:07.693Z,44.9
2017-06-30T06:31:08.714Z,44.9
2017-06-30T06:32:09.611Z,45.0
2017-06-30T06:33:10.846Z,44.9
2017-06-30T06:34:11.695Z,45.0
2017-06-30T06:35:12.504Z,45.0
2017-06-30T06:36:13.681Z,45.0
2017-06-30T06:37:14.488Z,44.7
2017-06-30T06:38:15.481Z,44.8
2017-06-30T06:39:16.334Z,44.8
2017-06-30T06:40:17.236Z,44.5
2017-06-30T06:41:18.132Z,45.0
2017-06-30T06:42:20.127Z,44.5
2017-06-30T06:43:21.005Z,44.5
2017-06-30T06:44:21.806Z,44.5
2017-06-30T06:45:22.583Z,44.5
2017-06-30T06:46:23.388Z,44.5
2017-06-30T06:47:24.489Z,44.5
2017-06-30T06:48:25.694Z,44.7
2017-06-30T06:49:26.508Z,44.6
2017-06-30T06:50:27.330Z,44.1
2017-06-30T06:51:28.176Z,44.2
2017-06-30T06:52:29.045Z,44.3
2017-06-30T06:53:29.845Z,44.1
2017-06-30T06:54:30.922Z,44.2
2017-06-30T06:55:31.750Z,44.0
2017-06-30T06:56:32.577Z,43.9
2017-06-30T06:57:33.361Z,44.1
2017-06-30T06:58:34.175Z,44.3
2017-06-30T06:59:35.098Z,43.9
2017-06-30T07:00:36.273Z,43.9
2017-06-30T07:01:37.154Z,44.0
2017-06-30T07:02:38.087Z,43.9
2017-06-30T07:03:38.960Z,43.5
2017-06-30T07:04:39.933Z,43.5
2017-06-30T07:05:40.746Z,43.7
2017-06-30T07:06:41.841Z,43.6
2017-06-30T07:07:42.724Z,43.5
2017-06-30T07:08:43.537Z,43.8
2017-06-30T07:09:44.263Z,43.4
2017-06-30T07:10:45.145Z,44.1
2017-06-30T07:11:45.975Z,43.6
2017-06-30T07:12:47.072Z,43.6
2017-06-30T07:13:47.829Z,43.5
2017-06-30T07:14:48.615Z,43.4
2017-06-30T07:15:49.523Z,43.4
2017-06-30T07:16:50.476Z,43.5
2017-06-30T07:17:51.422Z,43.7
2017-06-30T07:18:52.573Z,43.7
2017-06-30T07:19:53.378Z,43.2
2017-06-30T07:20:54.542Z,43.2
2017-06-30T07:21:55.407Z,43.1
2017-06-30T07:22:56.416Z,43.2
2017-06-30T07:23:57.221Z,43.0
2017-06-30T07:24:58.595Z,43.8
2017-06-30T07:25:59.478Z,43.3
2017-06-30T07:27:00.251Z,43.1
2017-06-30T07:28:01.204Z,42.8
2017-06-30T07:29:01.996Z,42.7
2017-06-30T07:30:02.795Z,43.0
2017-06-30T07:31:03.905Z,42.9
2017-06-30T07:32:05.107Z,43.2
2017-06-30T07:33:06.006Z,43.3
2017-06-30T07:34:06.995Z,43.2
2017-06-30T07:35:07.860Z,42.8
2017-06-30T07:36:08.622Z,42.9
2017-06-30T07:37:09.660Z,42.6
2017-06-30T07:38:10.481Z,42.7
2017-06-30T07:39:11.410Z,43.1
2017-06-30T07:40:12.317Z,42.5
2017-06-30T07:41:13.108Z,42.4
2017-06-30T07:42:14.340Z,42.4
2017-06-30T07:43:15.402Z,42.4
2017-06-30T07:44:16.125Z,42.3
2017-06-30T07:45:17.083Z,42.9
2017-06-30T07:46:17.823Z,42.6
2017-06-30T07:47:18.554Z,42.3
2017-06-30T07:48:19.368Z,42.5
2017-06-30T07:49:20.508Z,42.4
2017-06-30T07:50:21.390Z,42.2
2017-06-30T07:51:22.101Z,42.2
2017-06-30T07:52:22.938Z,42.4
2017-06-30T07:53:23.750Z,42.3
2017-06-30T07:54:24.611Z,42.6
2017-06-30T07:55:25.845Z,42.4
2017-06-30T07:56:26.619Z,42.3
2017-06-30T07:57:27.430Z,42.5
2017-06-30T07:58:28.327Z,43.0
2017-06-30T07:59:29.781Z,42.5
2017-06-30T08:00:31.119Z,42.4
2017-06-30T08:01:32.408Z,42.4
2017-06-30T08:02:33.250Z,42.4
2017-06-30T08:03:33.993Z,42.5
2017-06-30T08:04:34.851Z,43.0
2017-06-30T08:05:35.709Z,42.5
2017-06-30T08:06:36.511Z,42.4
2017-06-30T08:07:37.576Z,42.4
2017-06-30T08:08:38.423Z,42.4
2017-06-30T08:09:39.320Z,42.6
2017-06-30T08:10:40.098Z,42.1
2017-06-30T08:11:40.813Z,42.1
2017-06-30T08:12:41.609Z,41.8
2017-06-30T08:13:42.684Z,41.9
2017-06-30T08:14:43.675Z,41.7
2017-06-30T08:15:44.464Z,41.5
2017-06-30T08:16:45.309Z,42.1
2017-06-30T08:17:46.043Z,41.6
2017-06-30T08:18:47.240Z,41.5
2017-06-30T08:19:48.542Z,41.5
2017-06-30T08:20:49.257Z,41.6
2017-06-30T08:21:49.995Z,41.5
2017-06-30T08:22:50.874Z,41.6
2017-06-30T08:23:51.758Z,41.5
2017-06-30T08:24:53.153Z,42.2
2017-06-30T08:25:53.968Z,41.6
2017-06-30T08:26:54.863Z,41.7
2017-06-30T08:27:55.645Z,41.9
2017-06-30T08:28:56.532Z,41.7
2017-06-30T08:29:57.731Z,41.6
2017-06-30T08:30:58.558Z,41.7
2017-06-30T08:31:59.369Z,41.6
2017-06-30T08:33:00.091Z,41.3
2017-06-30T08:34:00.800Z,41.4
2017-06-30T08:35:01.769Z,41.2
2017-06-30T08:36:02.606Z,41.2
2017-06-30T08:37:03.736Z,41.5
2017-06-30T08:38:04.486Z,41.2
2017-06-30T08:39:05.351Z,41.4
2017-06-30T08:40:06.128Z,41.2
2017-06-30T08:41:06.998Z,41.3
2017-06-30T08:42:07.711Z,40.9
2017-06-30T08:43:08.791Z,40.9
2017-06-30T08:44:09.602Z,40.9
2017-06-30T08:45:10.658Z,40.9
2017-06-30T08:46:11.520Z,41.0
2017-06-30T08:47:12.238Z,41.1
2017-06-30T08:48:13.046Z,41.1
2017-06-30T08:49:14.153Z,40.9
2017-06-30T08:50:15.014Z,40.9
2017-06-30T08:51:15.800Z,41.1
2017-06-30T08:52:16.655Z,41.3
2017-06-30T08:53:17.451Z,40.5
2017-06-30T08:54:18.358Z,40.6
2017-06-30T08:55:19.503Z,41.2
2017-06-30T08:56:20.823Z,40.9
2017-06-30T08:57:21.667Z,41.0
2017-06-30T08:58:22.393Z,40.9
2017-06-30T08:59:23.191Z,40.6
2017-06-30T09:00:24.427Z,40.7
2017-06-30T09:01:25.156Z,40.9
2017-06-30T09:02:26.354Z,40.8
2017-06-30T09:03:27.173Z,40.9
2017-06-30T09:04:28.011Z,40.4
2017-06-30T09:05:29.202Z,40.4
2017-06-30T09:06:30.410Z,40.7
2017-06-30T09:07:31.305Z,40.4
2017-06-30T09:08:32.173Z,40.7
2017-06-30T09:09:32.983Z,40.4
2017-06-30T09:10:33.881Z,40.4
2017-06-30T09:11:34.809Z,40.4
2017-06-30T09:12:35.912Z,40.2
2017-06-30T09:13:36.647Z,40.4
2017-06-30T09:14:37.441Z,40.4
2017-06-30T09:15:38.182Z,40.4
2017-06-30T09:16:38.974Z,40.4
2017-06-30T09:17:39.925Z,40.3
2017-06-30T09:18:41.581Z,40.0
2017-06-30T09:19:42.313Z,40.2
2017-06-30T09:20:43.110Z,40.4
2017-06-30T09:21:43.870Z,40.0
2017-06-30T09:22:44.832Z,40.4
2017-06-30T09:23:45.918Z,40.2
2017-06-30T09:24:46.702Z,40.3
2017-06-30T09:25:47.499Z,40.2
2017-06-30T09:26:48.266Z,40.0
2017-06-30T09:27:49.332Z,40.2
2017-06-30T09:28:50.202Z,40.1
2017-06-30T09:29:51.304Z,40.1
2017-06-30T09:30:52.137Z,40.2
2017-06-30T09:31:53.574Z,39.9
2017-06-30T09:32:54.472Z,39.7
2017-06-30T09:33:55.342Z,39.5
2017-06-30T09:34:56.565Z,40.0
2017-06-30T09:35:57.542Z,39.6
2017-06-30T09:36:58.346Z,39.2
2017-06-30T09:37:59.114Z,39.4
2017-06-30T09:38:59.899Z,39.6
2017-06-30T09:40:00.811Z,40.0
2017-06-30T09:41:02.096Z,39.6
2017-06-30T09:42:02.921Z,39.8
2017-06-30T09:43:03.812Z,39.5
2017-06-30T09:44:04.770Z,39.4
2017-06-30T09:45:06.211Z,39.4
2017-06-30T09:46:07.401Z,39.6
2017-06-30T09:47:08.266Z,39.3
2017-06-30T09:48:09.130Z,39.7
2017-06-30T09:49:09.992Z,39.5
2017-06-30T09:50:10.872Z,39.7
2017-06-30T09:51:11.716Z,39.6
2017-06-30T09:52:13.107Z,40.0
2017-06-30T09:53:14.309Z,39.5
2017-06-30T09:54:15.319Z,39.3
2017-06-30T09:55:16.130Z,39.4
2017-06-30T09:56:17.097Z,39.3
2017-06-30T09:57:17.899Z,39.5
2017-06-30T09:58:19.070Z,39.5
2017-06-30T09:59:19.912Z,39.3
2017-06-30T10:00:20.711Z,39.8
2017-06-30T10:01:21.494Z,39.8
2017-06-30T10:02:22.360Z,39.6
2017-06-30T10:03:23.330Z,39.8
2017-06-30T10:04:24.500Z,40.0
2017-06-30T10:05:25.327Z,39.8
2017-06-30T10:06:26.201Z,39.5
2017-06-30T10:07:27.084Z,39.8
2017-06-30T10:08:27.949Z,40.1
2017-06-30T10:09:29.104Z,39.8
2017-06-30T10:10:30.334Z,39.8
2017-06-30T10:11:31.191Z,39.7
2017-06-30T10:12:32.102Z,39.7
2017-06-30T10:13:32.900Z,39.9
2017-06-30T10:14:33.788Z,39.8
2017-06-30T10:15:34.887Z,39.8
2017-06-30T10:16:35.815Z,39.8
2017-06-30T10:17:36.959Z,39.9
2017-06-30T10:18:37.705Z,40.0
2017-06-30T10:19:38.509Z,39.6
2017-06-30T10:20:39.263Z,39.1
2017-06-30T10:21:40.460Z,39.4
2017-06-30T10:22:41.334Z,38.5
2017-06-30T10:23:42.044Z,39.2
2017-06-30T10:24:42.918Z,39.4
2017-06-30T10:25:43.640Z,39.6
2017-06-30T10:26:44.705Z,39.5
2017-06-30T10:27:45.776Z,39.6
2017-06-30T10:28:46.622Z,39.6
2017-06-30T10:29:47.408Z,39.4
2017-06-30T10:30:48.159Z,40.2
2017-06-30T10:31:49.156Z,39.7
2017-06-30T10:32:49.926Z,39.6
2017-06-30T10:33:51.026Z,39.4
2017-06-30T10:34:51.910Z,39.6
2017-06-30T10:35:52.838Z,39.7
2017-06-30T10:36:53.827Z,39.9
2017-06-30T10:37:54.627Z,39.5
2017-06-30T10:38:55.573Z,39.8
2017-06-30T10:39:57.212Z,39.4
2017-06-30T10:40:58.111Z,39.1
2017-06-30T10:41:59.109Z,39.2
2017-06-30T10:42:59.920Z,39.2
2017-06-30T10:44:00.919Z,39.1
2017-06-30T10:45:01.809Z,39.2
2017-06-30T10:46:02.824Z,39.5
2017-06-30T10:47:03.845Z,38.9
2017-06-30T10:48:05.203Z,39.1
2017-06-30T10:49:06.037Z,38.9
2017-06-30T10:50:06.947Z,38.2
2017-06-30T10:51:07.753Z,38.1
2017-06-30T10:52:08.854Z,39.1
2017-06-30T10:53:09.573Z,39.0
2017-06-30T10:54:10.397Z,38.7
2017-06-30T10:55:11.240Z,38.6
2017-06-30T10:56:12.194Z,38.1
2017-06-30T10:57:13.376Z,38.5
2017-06-30T10:58:14.554Z,38.5
2017-06-30T10:59:15.281Z,38.3
2017-06-30T11:00:16.178Z,38.4
2017-06-30T11:01:16.971Z,38.4
2017-06-30T11:02:17.802Z,38.5
2017-06-30T11:03:18.685Z,38.6
2017-06-30T11:04:20.228Z,38.3
2017-06-30T11:05:21.036Z,38.3
2017-06-30T11:06:21.933Z,37.9
2017-06-30T11:07:22.816Z,38.3
2017-06-30T11:08:23.705Z,37.7
2017-06-30T11:09:24.543Z,37.8
2017-06-30T11:10:26.019Z,37.5
2017-06-30T11:11:26.871Z,37.8
2017-06-30T11:12:28.059Z,37.8
2017-06-30T11:13:28.880Z,38.2
2017-06-30T11:14:29.678Z,38.0
2017-06-30T11:15:30.507Z,37.9
2017-06-30T11:16:31.817Z,37.5
2017-06-30T11:17:32.984Z,37.1
2017-06-30T11:18:33.865Z,37.9
2017-06-30T11:19:34.781Z,37.2
2017-06-30T11:20:35.651Z,37.7
2017-06-30T11:21:36.575Z,38.3
2017-06-30T11:22:38.066Z,37.8
2017-06-30T11:23:39.037Z,38.1
2017-06-30T11:24:39.878Z,38.3
2017-06-30T11:25:40.727Z,38.1
2017-06-30T11:26:42.117Z,37.9
2017-06-30T11:27:42.897Z,38.2
2017-06-30T11:28:44.170Z,38.5
2017-06-30T11:29:44.968Z,38.2
2017-06-30T11:30:45.922Z,38.1
2017-06-30T11:31:46.693Z,37.6
2017-06-30T11:32:47.540Z,38.0
2017-06-30T11:33:48.709Z,38.1
2017-06-30T11:34:49.862Z,37.6
2017-06-30T11:35:50.657Z,37.9
2017-06-30T11:36:51.487Z,37.2
2017-06-30T11:37:52.385Z,37.3
2017-06-30T11:38:53.270Z,37.3
2017-06-30T11:39:54.174Z,37.3
2017-06-30T11:40:55.452Z,36.7
2017-06-30T11:41:56.304Z,36.7
2017-06-30T11:42:57.479Z,36.8
2017-06-30T11:43:58.352Z,37.0
2017-06-30T11:44:59.204Z,37.2
2017-06-30T11:46:00.138Z,37.4
2017-06-30T11:47:01.519Z,37.3
2017-06-30T11:48:02.574Z,37.0
2017-06-30T11:50:06.871Z,37.6
2017-06-30T11:51:08.351Z,37.3
2017-06-30T11:52:09.248Z,37.6
2017-06-30T11:53:10.925Z,37.6
2017-06-30T11:54:12.229Z,37.4
2017-06-30T11:55:13.122Z,37.4
2017-06-30T11:56:14.047Z,37.6
2017-06-30T11:57:14.935Z,37.2
2017-06-30T11:58:16.356Z,37.1
2017-06-30T11:59:17.545Z,37.6
2017-06-30T12:00:18.479Z,37.8
2017-06-30T12:01:19.426Z,37.7
2017-06-30T12:02:20.313Z,37.9
2017-06-30T12:03:21.299Z,37.9
2017-06-30T12:04:22.724Z,37.7
2017-06-30T12:05:24.527Z,37.7
2017-06-30T12:06:26.045Z,37.7
2017-06-30T12:07:26.902Z,37.1
2017-06-30T12:08:27.827Z,37.4
2017-06-30T12:09:28.613Z,37.7
2017-06-30T12:10:29.487Z,37.7
2017-06-30T12:11:30.613Z,37.6
2017-06-30T12:12:31.547Z,37.6
2017-06-30T12:13:32.746Z,38.1
2017-06-30T12:14:33.675Z,37.6
2017-06-30T12:15:34.645Z,37.2
2017-06-30T12:16:35.835Z,37.3
2017-06-30T12:17:37.046Z,37.1
2017-06-30T12:18:38.042Z,37.3
2017-06-30T12:19:39.157Z,37.0
2017-06-30T12:20:40.173Z,37.1
2017-06-30T12:21:41.114Z,37.5
2017-06-30T12:22:42.006Z,37.3
2017-06-30T12:23:43.515Z,37.1
2017-06-30T12:24:44.391Z,37.3
2017-06-30T12:25:45.268Z,37.3
2017-06-30T12:26:46.222Z,37.1
2017-06-30T12:27:47.080Z,37.1
2017-06-30T12:28:48.090Z,36.4
2017-06-30T12:29:49.355Z,36.9
2017-06-30T12:30:50.364Z,37.1
2017-06-30T12:31:51.275Z,37.3
2017-06-30T12:32:52.100Z,37.5
2017-06-30T12:33:52.929Z,37.3
2017-06-30T12:34:54.036Z,37.6
2017-06-30T12:35:55.294Z,37.6
2017-06-30T12:36:56.231Z,36.7
2017-06-30T12:37:57.132Z,37.2
2017-06-30T12:38:58.086Z,37.0
2017-06-30T12:39:58.914Z,37.1
2017-06-30T12:40:59.835Z,37.5
2017-06-30T12:42:01.615Z,37.7
2017-06-30T12:43:02.554Z,37.6
2017-06-30T12:44:03.608Z,37.3
2017-06-30T12:45:04.477Z,37.7
2017-06-30T12:46:05.547Z,37.2
2017-06-30T12:47:06.394Z,37.4
2017-06-30T12:48:07.237Z,37.1
2017-06-30T12:49:08.437Z,37.8
2017-06-30T12:50:09.554Z,38.0
2017-06-30T12:51:10.523Z,38.0
2017-06-30T12:52:11.643Z,38.0
2017-06-30T12:53:12.552Z,38.1
2017-06-30T12:54:13.396Z,37.8
2017-06-30T12:55:14.725Z,37.8
2017-06-30T12:56:16.149Z,37.8
2017-06-30T12:57:17.222Z,37.7
2017-06-30T12:58:18.286Z,37.9
2017-06-30T12:59:19.746Z,37.1
2017-06-30T13:00:20.646Z,37.1
2017-06-30T13:01:21.885Z,37.5
2017-06-30T13:02:22.912Z,37.6
2017-06-30T13:03:23.810Z,37.5
2017-06-30T13:04:24.769Z,37.7
2017-06-30T13:05:25.769Z,37.6
2017-06-30T13:06:26.744Z,37.7
2017-06-30T13:07:28.220Z,37.5
2017-06-30T13:08:29.190Z,37.7
2017-06-30T13:09:30.025Z,37.6
2017-06-30T13:10:30.921Z,37.9
2017-06-30T13:11:32.670Z,37.8
2017-06-30T13:12:33.655Z,37.8
2017-06-30T13:13:34.825Z,38.0
2017-06-30T13:14:35.826Z,37.7
2017-06-30T13:15:36.927Z,37.8
2017-06-30T13:16:37.833Z,38.1
2017-06-30T13:17:38.763Z,37.8
2017-06-30T13:19:56.236Z,38.1
2017-06-30T13:20:57.091Z,37.8
2017-06-30T13:21:58.930Z,37.8
2017-06-30T13:23:00.156Z,38.0
2017-06-30T13:24:01.287Z,37.4
2017-06-30T13:25:02.195Z,37.9
2017-06-30T13:26:03.404Z,37.6
2017-06-30T13:27:04.870Z,37.6
2017-06-30T13:28:05.824Z,37.8
2017-06-30T13:29:06.733Z,37.6
2017-06-30T13:30:07.777Z,37.8
2017-06-30T13:31:08.680Z,37.7
2017-06-30T13:32:10.098Z,37.6
2017-06-30T13:33:10.954Z,37.1
2017-06-30T13:34:11.817Z,37.0
2017-06-30T13:35:12.809Z,36.7
2017-06-30T13:36:13.727Z,36.7
2017-06-30T13:37:14.649Z,36.7
2017-06-30T13:38:16.376Z,36.4
2017-06-30T13:39:17.225Z,36.5
2017-06-30T13:40:18.236Z,36.5
2017-06-30T13:41:19.105Z,36.2
2017-06-30T13:42:20.066Z,36.4